sensor_id;sensor_type;location;lat;lon;timestamp;P1;durP1;ratioP1;P2;durP2;ratioP2
18999;SDS011;9633;50.980;13.850;2022-07-30T00:00:15;7.80;;;6.67;;
18999;SDS011;9633;50.980;13.850;2022-07-30T00:01:55;7.50;;;6.70;;
18999;SDS011;9633;50.980;13.850;2022-07-30T00:03:29;7.47;;;6.70;;
18999;SDS011;9633;50.980;13.850;2022-07-30T00:05:02;7.13;;;6.27;;
18999;SDS011;9633;50.980;13.850;2022-07-30T00:06:36;7.10;;;6.40;;
18999;SDS011;9633;50.980;13.850;2022-07-30T00:08:10;10.47;;;6.97;;
18999;SDS011;9633;50.980;13.850;2022-07-30T00:09:45;7.00;;;6.30;;
18999;SDS011;9633;50.980;13.850;2022-07-30T00:11:18;7.00;;;6.40;;
18999;SDS011;9633;50.980;13.850;2022-07-30T00:12:58;11.50;;;6.13;;
18999;SDS011;9633;50.980;13.850;2022-07-30T00:14:31;9.47;;;6.43;;
18999;SDS011;9633;50.980;13.850;2022-07-30T00:16:05;7.10;;;6.40;;
18999;SDS011;9633;50.980;13.850;2022-07-30T00:17:39;6.47;;;5.67;;
18999;SDS011;9633;50.980;13.850;2022-07-30T00:19:11;7.10;;;6.40;;
18999;SDS011;9633;50.980;13.850;2022-07-30T00:20:45;9.10;;;5.73;;
18999;SDS011;9633;50.980;13.850;2022-07-30T00:22:19;8.17;;;6.17;;
18999;SDS011;9633;50.980;13.850;2022-07-30T00:23:52;6.83;;;6.23;;
18999;SDS011;9633;50.980;13.850;2022-07-30T00:25:34;10.00;;;6.87;;
18999;SDS011;9633;50.980;13.850;2022-07-30T00:27:07;7.87;;;6.40;;
18999;SDS011;9633;50.980;13.850;2022-07-30T00:28:40;7.03;;;6.33;;
18999;SDS011;9633;50.980;13.850;2022-07-30T00:30:13;7.37;;;6.23;;
18999;SDS011;9633;50.980;13.850;2022-07-30T00:31:47;7.73;;;6.23;;
18999;SDS011;9633;50.980;13.850;2022-07-30T00:33:20;7.03;;;6.40;;
18999;SDS011;9633;50.980;13.850;2022-07-30T00:34:53;7.20;;;6.50;;
18999;SDS011;9633;50.980;13.850;2022-07-30T00:36:27;7.60;;;6.90;;
18999;SDS011;9633;50.980;13.850;2022-07-30T00:38:00;8.07;;;6.47;;
18999;SDS011;9633;50.980;13.850;2022-07-30T00:39:34;7.27;;;6.57;;
18999;SDS011;9633;50.980;13.850;2022-07-30T00:41:08;7.70;;;7.00;;
18999;SDS011;9633;50.980;13.850;2022-07-30T00:42:43;7.77;;;6.50;;
18999;SDS011;9633;50.980;13.850;2022-07-30T00:44:17;7.93;;;6.90;;
18999;SDS011;9633;50.980;13.850;2022-07-30T00:45:49;7.03;;;6.40;;
18999;SDS011;9633;50.980;13.850;2022-07-30T00:47:23;9.70;;;6.63;;
18999;SDS011;9633;50.980;13.850;2022-07-30T00:48:56;7.13;;;6.53;;
18999;SDS011;9633;50.980;13.850;2022-07-30T00:50:30;7.87;;;6.60;;
18999;SDS011;9633;50.980;13.850;2022-07-30T00:52:03;6.87;;;6.23;;
18999;SDS011;9633;50.980;13.850;2022-07-30T00:53:35;7.60;;;6.33;;
18999;SDS011;9633;50.980;13.850;2022-07-30T00:55:10;7.63;;;6.80;;
18999;SDS011;9633;50.980;13.850;2022-07-30T00:56:46;8.90;;;6.60;;
18999;SDS011;9633;50.980;13.850;2022-07-30T00:58:20;7.13;;;6.50;;
18999;SDS011;9633;50.980;13.850;2022-07-30T00:59:53;6.83;;;6.20;;
18999;SDS011;9633;50.980;13.850;2022-07-30T01:01:25;8.43;;;6.43;;
18999;SDS011;9633;50.980;13.850;2022-07-30T01:02:59;7.00;;;6.30;;
18999;SDS011;9633;50.980;13.850;2022-07-30T01:04:33;9.63;;;6.87;;
18999;SDS011;9633;50.980;13.850;2022-07-30T01:06:06;7.30;;;6.60;;
18999;SDS011;9633;50.980;13.850;2022-07-30T01:07:44;7.47;;;6.30;;
18999;SDS011;9633;50.980;13.850;2022-07-30T01:09:18;6.80;;;6.17;;
18999;SDS011;9633;50.980;13.850;2022-07-30T01:10:51;6.67;;;5.67;;
18999;SDS011;9633;50.980;13.850;2022-07-30T01:12:27;6.53;;;5.93;;
18999;SDS011;9633;50.980;13.850;2022-07-30T01:14:01;6.90;;;6.30;;
18999;SDS011;9633;50.980;13.850;2022-07-30T01:15:35;7.00;;;6.30;;
18999;SDS011;9633;50.980;13.850;2022-07-30T01:17:10;7.73;;;6.30;;
18999;SDS011;9633;50.980;13.850;2022-07-30T01:18:44;7.00;;;6.30;;
18999;SDS011;9633;50.980;13.850;2022-07-30T01:20:37;7.03;;;6.33;;
18999;SDS011;9633;50.980;13.850;2022-07-30T01:22:25;7.23;;;6.20;;
18999;SDS011;9633;50.980;13.850;2022-07-30T01:24:08;7.57;;;6.83;;
18999;SDS011;9633;50.980;13.850;2022-07-30T01:25:53;8.00;;;6.40;;
18999;SDS011;9633;50.980;13.850;2022-07-30T01:27:30;8.47;;;6.40;;
18999;SDS011;9633;50.980;13.850;2022-07-30T01:29:05;7.10;;;6.40;;
18999;SDS011;9633;50.980;13.850;2022-07-30T01:30:41;6.90;;;6.20;;
18999;SDS011;9633;50.980;13.850;2022-07-30T01:32:15;8.00;;;6.63;;
18999;SDS011;9633;50.980;13.850;2022-07-30T01:33:50;7.93;;;6.77;;
18999;SDS011;9633;50.980;13.850;2022-07-30T01:35:25;7.00;;;6.40;;
18999;SDS011;9633;50.980;13.850;2022-07-30T01:37:01;7.67;;;6.87;;
18999;SDS011;9633;50.980;13.850;2022-07-30T01:38:39;7.70;;;6.70;;
18999;SDS011;9633;50.980;13.850;2022-07-30T01:40:14;6.90;;;6.20;;
18999;SDS011;9633;50.980;13.850;2022-07-30T01:41:49;7.03;;;6.43;;
18999;SDS011;9633;50.980;13.850;2022-07-30T01:43:23;7.80;;;6.67;;
18999;SDS011;9633;50.980;13.850;2022-07-30T01:44:58;7.27;;;6.57;;
18999;SDS011;9633;50.980;13.850;2022-07-30T01:46:33;7.33;;;6.60;;
18999;SDS011;9633;50.980;13.850;2022-07-30T01:48:07;7.30;;;6.63;;
18999;SDS011;9633;50.980;13.850;2022-07-30T01:49:43;7.90;;;7.13;;
18999;SDS011;9633;50.980;13.850;2022-07-30T01:51:19;7.87;;;7.23;;
18999;SDS011;9633;50.980;13.850;2022-07-30T01:52:55;7.93;;;7.13;;
18999;SDS011;9633;50.980;13.850;2022-07-30T01:54:29;7.57;;;6.77;;
18999;SDS011;9633;50.980;13.850;2022-07-30T01:56:05;8.27;;;7.47;;
18999;SDS011;9633;50.980;13.850;2022-07-30T01:57:45;7.67;;;6.87;;
18999;SDS011;9633;50.980;13.850;2022-07-30T01:59:19;7.53;;;6.83;;
18999;SDS011;9633;50.980;13.850;2022-07-30T02:00:56;7.47;;;6.70;;
18999;SDS011;9633;50.980;13.850;2022-07-30T02:02:31;7.33;;;6.63;;
18999;SDS011;9633;50.980;13.850;2022-07-30T02:04:06;8.07;;;7.30;;
18999;SDS011;9633;50.980;13.850;2022-07-30T02:05:40;7.83;;;7.07;;
18999;SDS011;9633;50.980;13.850;2022-07-30T02:07:16;7.97;;;7.20;;
18999;SDS011;9633;50.980;13.850;2022-07-30T02:08:54;7.87;;;7.07;;
18999;SDS011;9633;50.980;13.850;2022-07-30T02:10:34;7.37;;;6.60;;
18999;SDS011;9633;50.980;13.850;2022-07-30T02:12:19;8.07;;;7.30;;
18999;SDS011;9633;50.980;13.850;2022-07-30T02:14:06;8.73;;;7.27;;
18999;SDS011;9633;50.980;13.850;2022-07-30T02:15:48;8.90;;;7.00;;
18999;SDS011;9633;50.980;13.850;2022-07-30T02:17:27;7.97;;;7.17;;
18999;SDS011;9633;50.980;13.850;2022-07-30T02:19:10;7.47;;;6.77;;
18999;SDS011;9633;50.980;13.850;2022-07-30T02:20:47;7.97;;;7.20;;
18999;SDS011;9633;50.980;13.850;2022-07-30T02:22:28;7.50;;;6.73;;
18999;SDS011;9633;50.980;13.850;2022-07-30T02:24:06;7.50;;;6.80;;
18999;SDS011;9633;50.980;13.850;2022-07-30T02:25:46;8.20;;;7.40;;
18999;SDS011;9633;50.980;13.850;2022-07-30T02:27:26;7.40;;;6.70;;
18999;SDS011;9633;50.980;13.850;2022-07-30T02:29:03;7.73;;;6.70;;
18999;SDS011;9633;50.980;13.850;2022-07-30T02:30:53;8.60;;;7.40;;
18999;SDS011;9633;50.980;13.850;2022-07-30T02:32:29;7.03;;;6.43;;
18999;SDS011;9633;50.980;13.850;2022-07-30T02:34:07;8.93;;;7.00;;
18999;SDS011;9633;50.980;13.850;2022-07-30T02:35:44;7.93;;;7.07;;
18999;SDS011;9633;50.980;13.850;2022-07-30T02:37:17;7.87;;;7.17;;
18999;SDS011;9633;50.980;13.850;2022-07-30T02:39:13;8.17;;;7.37;;
18999;SDS011;9633;50.980;13.850;2022-07-30T02:40:48;8.40;;;7.67;;
18999;SDS011;9633;50.980;13.850;2022-07-30T02:42:22;8.13;;;7.33;;
18999;SDS011;9633;50.980;13.850;2022-07-30T02:43:56;8.63;;;7.43;;
18999;SDS011;9633;50.980;13.850;2022-07-30T02:45:32;8.67;;;7.90;;
18999;SDS011;9633;50.980;13.850;2022-07-30T02:47:07;8.30;;;7.60;;
18999;SDS011;9633;50.980;13.850;2022-07-30T02:49:03;7.93;;;7.23;;
18999;SDS011;9633;50.980;13.850;2022-07-30T02:50:38;8.90;;;7.77;;
18999;SDS011;9633;50.980;13.850;2022-07-30T02:52:12;8.23;;;7.40;;
18999;SDS011;9633;50.980;13.850;2022-07-30T02:53:48;8.53;;;7.73;;
18999;SDS011;9633;50.980;13.850;2022-07-30T02:55:25;8.90;;;8.10;;
18999;SDS011;9633;50.980;13.850;2022-07-30T02:57:01;9.40;;;7.83;;
18999;SDS011;9633;50.980;13.850;2022-07-30T02:58:36;9.10;;;8.20;;
18999;SDS011;9633;50.980;13.850;2022-07-30T03:00:10;8.07;;;7.30;;
18999;SDS011;9633;50.980;13.850;2022-07-30T03:01:46;8.40;;;7.73;;
18999;SDS011;9633;50.980;13.850;2022-07-30T03:03:20;8.93;;;8.03;;
18999;SDS011;9633;50.980;13.850;2022-07-30T03:05:00;9.60;;;7.93;;
18999;SDS011;9633;50.980;13.850;2022-07-30T03:06:35;8.97;;;8.03;;
18999;SDS011;9633;50.980;13.850;2022-07-30T03:08:09;9.37;;;8.50;;
18999;SDS011;9633;50.980;13.850;2022-07-30T03:09:51;8.97;;;8.13;;
18999;SDS011;9633;50.980;13.850;2022-07-30T03:11:28;10.00;;;8.67;;
18999;SDS011;9633;50.980;13.850;2022-07-30T03:13:03;9.73;;;8.83;;
18999;SDS011;9633;50.980;13.850;2022-07-30T03:14:38;9.27;;;8.37;;
18999;SDS011;9633;50.980;13.850;2022-07-30T03:16:11;10.13;;;9.13;;
18999;SDS011;9633;50.980;13.850;2022-07-30T03:17:48;9.67;;;8.77;;
18999;SDS011;9633;50.980;13.850;2022-07-30T03:19:28;9.37;;;8.57;;
18999;SDS011;9633;50.980;13.850;2022-07-30T03:21:05;9.67;;;8.80;;
18999;SDS011;9633;50.980;13.850;2022-07-30T03:22:41;10.83;;;9.50;;
18999;SDS011;9633;50.980;13.850;2022-07-30T03:24:17;10.43;;;9.43;;
18999;SDS011;9633;50.980;13.850;2022-07-30T03:25:53;11.93;;;9.47;;
18999;SDS011;9633;50.980;13.850;2022-07-30T03:27:29;10.53;;;9.37;;
18999;SDS011;9633;50.980;13.850;2022-07-30T03:29:03;9.97;;;9.07;;
18999;SDS011;9633;50.980;13.850;2022-07-30T03:30:41;10.60;;;9.60;;
18999;SDS011;9633;50.980;13.850;2022-07-30T03:32:15;10.87;;;9.70;;
18999;SDS011;9633;50.980;13.850;2022-07-30T03:33:58;10.70;;;9.73;;
18999;SDS011;9633;50.980;13.850;2022-07-30T03:35:31;12.17;;;11.00;;
18999;SDS011;9633;50.980;13.850;2022-07-30T03:37:05;11.00;;;9.90;;
18999;SDS011;9633;50.980;13.850;2022-07-30T03:38:39;11.47;;;10.37;;
18999;SDS011;9633;50.980;13.850;2022-07-30T03:40:14;10.80;;;9.80;;
18999;SDS011;9633;50.980;13.850;2022-07-30T03:41:48;10.83;;;9.90;;
18999;SDS011;9633;50.980;13.850;2022-07-30T03:43:21;11.77;;;10.53;;
18999;SDS011;9633;50.980;13.850;2022-07-30T03:45:05;11.13;;;10.13;;
18999;SDS011;9633;50.980;13.850;2022-07-30T03:46:40;11.33;;;10.33;;
18999;SDS011;9633;50.980;13.850;2022-07-30T03:48:13;11.57;;;10.40;;
18999;SDS011;9633;50.980;13.850;2022-07-30T03:49:51;12.17;;;10.93;;
18999;SDS011;9633;50.980;13.850;2022-07-30T03:51:25;11.97;;;10.77;;
18999;SDS011;9633;50.980;13.850;2022-07-30T03:53:04;12.70;;;11.50;;
18999;SDS011;9633;50.980;13.850;2022-07-30T03:54:53;11.77;;;10.57;;
18999;SDS011;9633;50.980;13.850;2022-07-30T03:56:49;12.93;;;11.83;;
18999;SDS011;9633;50.980;13.850;2022-07-30T03:58:35;13.80;;;12.10;;
18999;SDS011;9633;50.980;13.850;2022-07-30T04:00:11;13.23;;;12.03;;
18999;SDS011;9633;50.980;13.850;2022-07-30T04:01:52;12.47;;;11.37;;
18999;SDS011;9633;50.980;13.850;2022-07-30T04:03:43;12.43;;;11.33;;
18999;SDS011;9633;50.980;13.850;2022-07-30T04:05:18;12.80;;;11.50;;
18999;SDS011;9633;50.980;13.850;2022-07-30T04:06:53;13.07;;;11.87;;
18999;SDS011;9633;50.980;13.850;2022-07-30T04:08:27;13.27;;;11.97;;
18999;SDS011;9633;50.980;13.850;2022-07-30T04:09:59;12.80;;;11.60;;
18999;SDS011;9633;50.980;13.850;2022-07-30T04:11:58;12.60;;;11.50;;
18999;SDS011;9633;50.980;13.850;2022-07-30T04:13:36;13.27;;;12.17;;
18999;SDS011;9633;50.980;13.850;2022-07-30T04:15:09;13.00;;;11.70;;
18999;SDS011;9633;50.980;13.850;2022-07-30T04:17:03;13.37;;;12.20;;
18999;SDS011;9633;50.980;13.850;2022-07-30T04:18:41;13.50;;;12.10;;
18999;SDS011;9633;50.980;13.850;2022-07-30T04:20:20;12.97;;;11.77;;
18999;SDS011;9633;50.980;13.850;2022-07-30T04:21:55;13.03;;;11.73;;
18999;SDS011;9633;50.980;13.850;2022-07-30T04:23:30;12.53;;;11.40;;
18999;SDS011;9633;50.980;13.850;2022-07-30T04:25:24;13.60;;;12.40;;
18999;SDS011;9633;50.980;13.850;2022-07-30T04:26:58;14.80;;;13.10;;
18999;SDS011;9633;50.980;13.850;2022-07-30T04:28:34;15.00;;;13.43;;
18999;SDS011;9633;50.980;13.850;2022-07-30T04:30:08;14.87;;;13.57;;
18999;SDS011;9633;50.980;13.850;2022-07-30T04:31:43;15.00;;;13.53;;
18999;SDS011;9633;50.980;13.850;2022-07-30T04:33:35;15.57;;;13.90;;
18999;SDS011;9633;50.980;13.850;2022-07-30T04:35:26;15.57;;;14.10;;
18999;SDS011;9633;50.980;13.850;2022-07-30T04:37:22;14.90;;;13.53;;
18999;SDS011;9633;50.980;13.850;2022-07-30T04:38:58;15.27;;;13.87;;
18999;SDS011;9633;50.980;13.850;2022-07-30T04:40:31;15.10;;;13.70;;
18999;SDS011;9633;50.980;13.850;2022-07-30T04:42:05;16.40;;;14.80;;
18999;SDS011;9633;50.980;13.850;2022-07-30T04:43:40;14.43;;;13.23;;
18999;SDS011;9633;50.980;13.850;2022-07-30T04:45:13;15.17;;;13.70;;
18999;SDS011;9633;50.980;13.850;2022-07-30T04:46:54;16.10;;;14.40;;
18999;SDS011;9633;50.980;13.850;2022-07-30T04:48:28;16.27;;;14.67;;
18999;SDS011;9633;50.980;13.850;2022-07-30T04:50:21;15.73;;;14.33;;
18999;SDS011;9633;50.980;13.850;2022-07-30T04:51:59;14.93;;;13.63;;
18999;SDS011;9633;50.980;13.850;2022-07-30T04:53:34;14.37;;;13.10;;
18999;SDS011;9633;50.980;13.850;2022-07-30T04:55:08;16.00;;;14.47;;
18999;SDS011;9633;50.980;13.850;2022-07-30T04:56:44;15.17;;;13.67;;
18999;SDS011;9633;50.980;13.850;2022-07-30T04:58:24;15.20;;;13.63;;
18999;SDS011;9633;50.980;13.850;2022-07-30T04:59:59;14.53;;;13.13;;
18999;SDS011;9633;50.980;13.850;2022-07-30T05:01:34;14.33;;;12.93;;
18999;SDS011;9633;50.980;13.850;2022-07-30T05:03:12;13.97;;;12.63;;
18999;SDS011;9633;50.980;13.850;2022-07-30T05:04:53;13.03;;;11.83;;
18999;SDS011;9633;50.980;13.850;2022-07-30T05:06:30;13.93;;;12.53;;
18999;SDS011;9633;50.980;13.850;2022-07-30T05:08:07;13.60;;;11.97;;
18999;SDS011;9633;50.980;13.850;2022-07-30T05:09:40;13.57;;;12.20;;
18999;SDS011;9633;50.980;13.850;2022-07-30T05:11:14;13.90;;;11.70;;
18999;SDS011;9633;50.980;13.850;2022-07-30T05:12:48;13.03;;;11.73;;
18999;SDS011;9633;50.980;13.850;2022-07-30T05:14:24;12.70;;;11.37;;
18999;SDS011;9633;50.980;13.850;2022-07-30T05:15:58;13.17;;;11.87;;
18999;SDS011;9633;50.980;13.850;2022-07-30T05:17:32;12.97;;;11.77;;
18999;SDS011;9633;50.980;13.850;2022-07-30T05:23:41;11.97;;;10.77;;
18999;SDS011;9633;50.980;13.850;2022-07-30T05:25:41;11.83;;;10.67;;
18999;SDS011;9633;50.980;13.850;2022-07-30T05:27:19;11.13;;;10.13;;
18999;SDS011;9633;50.980;13.850;2022-07-30T05:28:53;11.90;;;10.73;;
18999;SDS011;9633;50.980;13.850;2022-07-30T05:30:34;11.20;;;10.20;;
18999;SDS011;9633;50.980;13.850;2022-07-30T05:32:14;12.17;;;10.80;;
18999;SDS011;9633;50.980;13.850;2022-07-30T05:33:48;13.40;;;10.47;;
18999;SDS011;9633;50.980;13.850;2022-07-30T05:35:23;11.60;;;9.90;;
18999;SDS011;9633;50.980;13.850;2022-07-30T05:36:55;10.13;;;9.07;;
18999;SDS011;9633;50.980;13.850;2022-07-30T05:38:29;11.90;;;10.63;;
18999;SDS011;9633;50.980;13.850;2022-07-30T05:40:23;10.80;;;9.73;;
18999;SDS011;9633;50.980;13.850;2022-07-30T05:42:16;10.50;;;9.60;;
18999;SDS011;9633;50.980;13.850;2022-07-30T05:43:55;10.57;;;9.57;;
18999;SDS011;9633;50.980;13.850;2022-07-30T05:45:28;10.63;;;9.63;;
18999;SDS011;9633;50.980;13.850;2022-07-30T05:47:02;9.97;;;8.87;;
18999;SDS011;9633;50.980;13.850;2022-07-30T05:48:35;9.93;;;8.90;;
18999;SDS011;9633;50.980;13.850;2022-07-30T05:50:09;10.10;;;8.97;;
18999;SDS011;9633;50.980;13.850;2022-07-30T05:51:44;11.13;;;9.47;;
18999;SDS011;9633;50.980;13.850;2022-07-30T05:53:17;9.73;;;8.83;;
18999;SDS011;9633;50.980;13.850;2022-07-30T05:55:06;9.30;;;8.27;;
18999;SDS011;9633;50.980;13.850;2022-07-30T05:56:58;11.70;;;8.70;;
18999;SDS011;9633;50.980;13.850;2022-07-30T05:58:41;10.13;;;8.77;;
18999;SDS011;9633;50.980;13.850;2022-07-30T06:00:17;9.73;;;8.73;;
18999;SDS011;9633;50.980;13.850;2022-07-30T06:01:56;9.13;;;8.20;;
18999;SDS011;9633;50.980;13.850;2022-07-30T06:03:42;8.87;;;8.03;;
18999;SDS011;9633;50.980;13.850;2022-07-30T06:05:34;8.93;;;7.57;;
18999;SDS011;9633;50.980;13.850;2022-07-30T06:07:08;8.80;;;7.80;;
18999;SDS011;9633;50.980;13.850;2022-07-30T06:08:41;10.13;;;8.47;;
18999;SDS011;9633;50.980;13.850;2022-07-30T06:10:14;10.10;;;7.97;;
18999;SDS011;9633;50.980;13.850;2022-07-30T06:11:47;8.90;;;7.37;;
18999;SDS011;9633;50.980;13.850;2022-07-30T06:13:22;9.20;;;7.20;;
18999;SDS011;9633;50.980;13.850;2022-07-30T06:14:56;11.83;;;8.50;;
18999;SDS011;9633;50.980;13.850;2022-07-30T06:16:33;10.00;;;7.87;;
18999;SDS011;9633;50.980;13.850;2022-07-30T06:18:07;9.57;;;8.37;;
18999;SDS011;9633;50.980;13.850;2022-07-30T06:19:45;12.73;;;8.13;;
18999;SDS011;9633;50.980;13.850;2022-07-30T06:21:19;9.57;;;8.10;;
18999;SDS011;9633;50.980;13.850;2022-07-30T06:23:18;8.17;;;7.37;;
18999;SDS011;9633;50.980;13.850;2022-07-30T06:25:09;11.07;;;8.37;;
18999;SDS011;9633;50.980;13.850;2022-07-30T06:26:49;8.80;;;7.90;;
18999;SDS011;9633;50.980;13.850;2022-07-30T06:28:24;11.23;;;7.93;;
18999;SDS011;9633;50.980;13.850;2022-07-30T06:30:16;8.80;;;7.90;;
18999;SDS011;9633;50.980;13.850;2022-07-30T06:31:49;9.40;;;8.00;;
18999;SDS011;9633;50.980;13.850;2022-07-30T06:33:23;9.67;;;8.73;;
18999;SDS011;9633;50.980;13.850;2022-07-30T06:34:56;9.13;;;7.83;;
18999;SDS011;9633;50.980;13.850;2022-07-30T06:36:35;9.13;;;8.13;;
18999;SDS011;9633;50.980;13.850;2022-07-30T06:38:15;12.67;;;11.50;;
18999;SDS011;9633;50.980;13.850;2022-07-30T06:39:59;8.70;;;7.90;;
18999;SDS011;9633;50.980;13.850;2022-07-30T06:41:55;9.77;;;8.23;;
18999;SDS011;9633;50.980;13.850;2022-07-30T06:43:46;8.70;;;7.50;;
18999;SDS011;9633;50.980;13.850;2022-07-30T06:45:41;12.73;;;8.43;;
18999;SDS011;9633;50.980;13.850;2022-07-30T06:47:21;9.30;;;8.40;;
18999;SDS011;9633;50.980;13.850;2022-07-30T06:49:00;9.90;;;7.70;;
18999;SDS011;9633;50.980;13.850;2022-07-30T06:50:34;8.63;;;7.83;;
18999;SDS011;9633;50.980;13.850;2022-07-30T06:52:07;8.13;;;7.43;;
18999;SDS011;9633;50.980;13.850;2022-07-30T06:53:49;8.63;;;7.83;;
18999;SDS011;9633;50.980;13.850;2022-07-30T06:55:54;11.93;;;8.67;;
18999;SDS011;9633;50.980;13.850;2022-07-30T06:57:35;9.10;;;7.97;;
18999;SDS011;9633;50.980;13.850;2022-07-30T06:59:34;8.77;;;7.93;;
18999;SDS011;9633;50.980;13.850;2022-07-30T07:01:43;10.07;;;8.00;;
18999;SDS011;9633;50.980;13.850;2022-07-30T07:03:18;9.73;;;8.73;;
18999;SDS011;9633;50.980;13.850;2022-07-30T07:04:51;11.17;;;7.63;;
18999;SDS011;9633;50.980;13.850;2022-07-30T07:06:24;8.73;;;7.80;;
18999;SDS011;9633;50.980;13.850;2022-07-30T07:07:57;9.57;;;7.43;;
18999;SDS011;9633;50.980;13.850;2022-07-30T07:09:36;10.20;;;8.13;;
18999;SDS011;9633;50.980;13.850;2022-07-30T07:11:44;11.37;;;7.60;;
18999;SDS011;9633;50.980;13.850;2022-07-30T07:13:21;8.47;;;7.57;;
18999;SDS011;9633;50.980;13.850;2022-07-30T07:14:56;8.60;;;7.73;;
18999;SDS011;9633;50.980;13.850;2022-07-30T07:16:30;9.00;;;8.20;;
18999;SDS011;9633;50.980;13.850;2022-07-30T07:18:11;10.37;;;7.97;;
18999;SDS011;9633;50.980;13.850;2022-07-30T07:19:52;11.43;;;7.43;;
18999;SDS011;9633;50.980;13.850;2022-07-30T07:21:36;8.53;;;7.67;;
18999;SDS011;9633;50.980;13.850;2022-07-30T07:23:10;8.93;;;7.07;;
18999;SDS011;9633;50.980;13.850;2022-07-30T07:24:45;8.50;;;7.40;;
18999;SDS011;9633;50.980;13.850;2022-07-30T07:26:25;10.10;;;7.67;;
18999;SDS011;9633;50.980;13.850;2022-07-30T07:27:58;8.67;;;7.37;;
18999;SDS011;9633;50.980;13.850;2022-07-30T07:29:46;8.37;;;7.60;;
18999;SDS011;9633;50.980;13.850;2022-07-30T07:31:39;12.77;;;8.13;;
18999;SDS011;9633;50.980;13.850;2022-07-30T07:33:33;11.40;;;8.10;;
18999;SDS011;9633;50.980;13.850;2022-07-30T07:35:07;8.80;;;7.37;;
18999;SDS011;9633;50.980;13.850;2022-07-30T07:36:47;7.53;;;6.83;;
18999;SDS011;9633;50.980;13.850;2022-07-30T07:38:20;8.40;;;7.50;;
18999;SDS011;9633;50.980;13.850;2022-07-30T07:39:56;9.63;;;7.43;;
18999;SDS011;9633;50.980;13.850;2022-07-30T07:41:31;7.97;;;7.17;;
18999;SDS011;9633;50.980;13.850;2022-07-30T07:43:25;9.37;;;7.87;;
18999;SDS011;9633;50.980;13.850;2022-07-30T07:45:01;9.17;;;7.57;;
18999;SDS011;9633;50.980;13.850;2022-07-30T07:46:42;7.53;;;6.83;;
18999;SDS011;9633;50.980;13.850;2022-07-30T07:48:16;11.87;;;7.43;;
18999;SDS011;9633;50.980;13.850;2022-07-30T07:50:14;11.93;;;7.37;;
18999;SDS011;9633;50.980;13.850;2022-07-30T07:51:49;7.60;;;6.90;;
18999;SDS011;9633;50.980;13.850;2022-07-30T07:53:23;8.03;;;7.23;;
18999;SDS011;9633;50.980;13.850;2022-07-30T07:54:57;8.60;;;7.23;;
18999;SDS011;9633;50.980;13.850;2022-07-30T07:56:33;8.33;;;7.53;;
18999;SDS011;9633;50.980;13.850;2022-07-30T07:58:08;8.93;;;8.03;;
18999;SDS011;9633;50.980;13.850;2022-07-30T07:59:48;9.13;;;7.57;;
18999;SDS011;9633;50.980;13.850;2022-07-30T08:01:30;11.63;;;8.20;;
18999;SDS011;9633;50.980;13.850;2022-07-30T08:03:34;10.40;;;8.40;;
18999;SDS011;9633;50.980;13.850;2022-07-30T08:05:23;9.23;;;8.27;;
18999;SDS011;9633;50.980;13.850;2022-07-30T08:07:31;11.23;;;8.03;;
18999;SDS011;9633;50.980;13.850;2022-07-30T08:09:26;8.70;;;8.00;;
18999;SDS011;9633;50.980;13.850;2022-07-30T08:11:30;12.40;;;8.23;;
18999;SDS011;9633;50.980;13.850;2022-07-30T08:13:29;11.30;;;8.60;;
18999;SDS011;9633;50.980;13.850;2022-07-30T08:15:43;9.20;;;8.03;;
18999;SDS011;9633;50.980;13.850;2022-07-30T08:17:38;12.53;;;9.10;;
18999;SDS011;9633;50.980;13.850;2022-07-30T08:19:18;9.60;;;8.80;;
18999;SDS011;9633;50.980;13.850;2022-07-30T08:20:59;13.07;;;9.10;;
18999;SDS011;9633;50.980;13.850;2022-07-30T08:22:35;10.00;;;8.40;;
18999;SDS011;9633;50.980;13.850;2022-07-30T08:24:08;9.60;;;8.50;;
18999;SDS011;9633;50.980;13.850;2022-07-30T08:25:41;11.73;;;8.47;;
18999;SDS011;9633;50.980;13.850;2022-07-30T08:27:15;9.77;;;8.77;;
18999;SDS011;9633;50.980;13.850;2022-07-30T08:28:49;10.10;;;8.23;;
18999;SDS011;9633;50.980;13.850;2022-07-30T08:30:25;13.20;;;8.73;;
18999;SDS011;9633;50.980;13.850;2022-07-30T08:32:00;9.17;;;7.70;;
18999;SDS011;9633;50.980;13.850;2022-07-30T08:33:34;10.20;;;8.93;;
18999;SDS011;9633;50.980;13.850;2022-07-30T08:35:09;9.23;;;8.27;;
18999;SDS011;9633;50.980;13.850;2022-07-30T08:36:44;10.10;;;8.43;;
18999;SDS011;9633;50.980;13.850;2022-07-30T08:38:18;9.87;;;8.40;;
18999;SDS011;9633;50.980;13.850;2022-07-30T08:39:54;9.03;;;8.13;;
18999;SDS011;9633;50.980;13.850;2022-07-30T08:41:27;9.53;;;8.67;;
18999;SDS011;9633;50.980;13.850;2022-07-30T08:43:02;9.93;;;8.50;;
18999;SDS011;9633;50.980;13.850;2022-07-30T08:44:37;10.07;;;7.73;;
18999;SDS011;9633;50.980;13.850;2022-07-30T08:46:12;9.53;;;8.57;;
18999;SDS011;9633;50.980;13.850;2022-07-30T08:47:55;9.47;;;8.50;;
18999;SDS011;9633;50.980;13.850;2022-07-30T08:49:40;11.90;;;9.20;;
18999;SDS011;9633;50.980;13.850;2022-07-30T08:51:32;10.33;;;9.30;;
18999;SDS011;9633;50.980;13.850;2022-07-30T08:53:22;11.43;;;10.23;;
18999;SDS011;9633;50.980;13.850;2022-07-30T08:54:58;13.07;;;10.13;;
18999;SDS011;9633;50.980;13.850;2022-07-30T08:56:32;10.20;;;9.23;;
18999;SDS011;9633;50.980;13.850;2022-07-30T08:58:06;10.67;;;9.57;;
18999;SDS011;9633;50.980;13.850;2022-07-30T08:59:59;11.40;;;10.30;;
18999;SDS011;9633;50.980;13.850;2022-07-30T09:01:34;10.93;;;9.50;;
18999;SDS011;9633;50.980;13.850;2022-07-30T09:03:07;9.83;;;8.83;;
18999;SDS011;9633;50.980;13.850;2022-07-30T09:04:41;11.57;;;9.80;;
18999;SDS011;9633;50.980;13.850;2022-07-30T09:06:14;10.80;;;9.67;;
18999;SDS011;9633;50.980;13.850;2022-07-30T09:07:49;10.93;;;9.90;;
18999;SDS011;9633;50.980;13.850;2022-07-30T09:09:26;13.17;;;11.03;;
18999;SDS011;9633;50.980;13.850;2022-07-30T09:11:02;10.63;;;9.17;;
18999;SDS011;9633;50.980;13.850;2022-07-30T09:12:37;11.70;;;10.60;;
18999;SDS011;9633;50.980;13.850;2022-07-30T09:14:14;11.30;;;9.37;;
18999;SDS011;9633;50.980;13.850;2022-07-30T09:15:47;10.90;;;9.87;;
18999;SDS011;9633;50.980;13.850;2022-07-30T09:17:21;10.90;;;9.60;;
18999;SDS011;9633;50.980;13.850;2022-07-30T09:18:54;11.77;;;9.97;;
18999;SDS011;9633;50.980;13.850;2022-07-30T09:20:28;10.50;;;9.60;;
18999;SDS011;9633;50.980;13.850;2022-07-30T09:22:03;11.53;;;9.50;;
18999;SDS011;9633;50.980;13.850;2022-07-30T09:23:59;10.23;;;9.13;;
18999;SDS011;9633;50.980;13.850;2022-07-30T09:25:52;13.13;;;9.03;;
18999;SDS011;9633;50.980;13.850;2022-07-30T09:27:56;10.33;;;9.17;;
18999;SDS011;9633;50.980;13.850;2022-07-30T09:29:48;11.83;;;10.00;;
18999;SDS011;9633;50.980;13.850;2022-07-30T09:31:51;9.77;;;8.60;;
18999;SDS011;9633;50.980;13.850;2022-07-30T09:33:45;11.23;;;9.27;;
18999;SDS011;9633;50.980;13.850;2022-07-30T09:35:37;10.27;;;9.07;;
18999;SDS011;9633;50.980;13.850;2022-07-30T09:37:17;12.10;;;9.13;;
18999;SDS011;9633;50.980;13.850;2022-07-30T09:39:33;10.60;;;8.90;;
18999;SDS011;9633;50.980;13.850;2022-07-30T09:41:31;11.83;;;10.13;;
18999;SDS011;9633;50.980;13.850;2022-07-30T09:43:14;12.13;;;9.40;;
18999;SDS011;9633;50.980;13.850;2022-07-30T09:45:03;10.93;;;9.77;;
18999;SDS011;9633;50.980;13.850;2022-07-30T09:46:40;10.13;;;9.23;;
18999;SDS011;9633;50.980;13.850;2022-07-30T09:48:21;10.37;;;9.13;;
18999;SDS011;9633;50.980;13.850;2022-07-30T09:50:00;10.07;;;8.90;;
18999;SDS011;9633;50.980;13.850;2022-07-30T09:51:38;8.83;;;8.03;;
18999;SDS011;9633;50.980;13.850;2022-07-30T09:53:28;10.07;;;8.20;;
18999;SDS011;9633;50.980;13.850;2022-07-30T09:55:04;10.37;;;8.67;;